sensor_id;sensor_type;location;lat;lon;timestamp;temperature;humidity
4293;DHT22;2160;51.172;6.808;2022-12-10T05:02:18;4.70;99.90
4293;DHT22;2160;51.172;6.808;2022-12-10T05:04:48;4.60;99.90
4293;DHT22;2160;51.172;6.808;2022-12-10T05:07:14;4.60;99.90
4293;DHT22;2160;51.172;6.808;2022-12-10T05:09:41;4.60;99.90
4293;DHT22;2160;51.172;6.808;2022-12-10T05:12:08;4.60;99.90
4293;DHT22;2160;51.172;6.808;2022-12-10T05:14:35;4.70;99.90
4293;DHT22;2160;51.172;6.808;2022-12-10T05:17:02;4.70;99.90
4293;DHT22;2160;51.172;6.808;2022-12-10T05:19:30;4.60;99.90
4293;DHT22;2160;51.172;6.808;2022-12-10T05:21:57;4.50;99.90
4293;DHT22;2160;51.172;6.808;2022-12-10T05:24:56;4.50;99.90
4293;DHT22;2160;51.172;6.808;2022-12-10T05:27:23;4.40;99.90
4293;DHT22;2160;51.172;6.808;2022-12-10T05:29:50;4.40;99.90
4293;DHT22;2160;51.172;6.808;2022-12-10T05:32:17;4.50;99.90
4293;DHT22;2160;51.172;6.808;2022-12-10T05:34:45;4.50;99.90
4293;DHT22;2160;51.172;6.808;2022-12-10T05:37:12;4.50;99.90
4293;DHT22;2160;51.172;6.808;2022-12-10T05:39:39;4.70;99.90
4293;DHT22;2160;51.172;6.808;2022-12-10T05:42:06;4.80;99.90
4293;DHT22;2160;51.172;6.808;2022-12-10T05:44:33;4.60;99.90
4293;DHT22;2160;51.172;6.808;2022-12-10T05:47:00;4.60;99.90
4293;DHT22;2160;51.172;6.808;2022-12-10T05:49:27;4.70;99.90
4293;DHT22;2160;51.172;6.808;2022-12-10T05:51:55;4.70;99.90
4293;DHT22;2160;51.172;6.808;2022-12-10T05:54:22;4.90;99.90
4293;DHT22;2160;51.172;6.808;2022-12-10T05:56:49;4.90;99.90
4293;DHT22;2160;51.172;6.808;2022-12-10T05:59:16;4.90;99.90
4293;DHT22;2160;51.172;6.808;2022-12-10T06:01:43;4.90;99.90
4293;DHT22;2160;51.172;6.808;2022-12-10T06:04:11;4.90;99.90
4293;DHT22;2160;51.172;6.808;2022-12-10T06:06:39;4.80;99.90
4293;DHT22;2160;51.172;6.808;2022-12-10T06:09:11;4.80;99.90
4293;DHT22;2160;51.172;6.808;2022-12-10T06:11:38;4.90;99.90
4293;DHT22;2160;51.172;6.808;2022-12-10T06:14:05;4.90;99.90
4293;DHT22;2160;51.172;6.808;2022-12-10T06:16:32;4.90;99.90
4293;DHT22;2160;51.172;6.808;2022-12-10T06:18:59;4.90;99.90
4293;DHT22;2160;51.172;6.808;2022-12-10T06:21:26;5.00;99.90
4293;DHT22;2160;51.172;6.808;2022-12-10T06:23:53;5.00;99.90
4293;DHT22;2160;51.172;6.808;2022-12-10T06:26:24;5.10;99.90
4293;DHT22;2160;51.172;6.808;2022-12-10T06:28:52;5.00;99.90
4293;DHT22;2160;51.172;6.808;2022-12-10T06:31:20;4.90;99.90
4293;DHT22;2160;51.172;6.808;2022-12-10T06:33:47;4.80;99.90
4293;DHT22;2160;51.172;6.808;2022-12-10T06:36:15;4.80;99.90
4293;DHT22;2160;51.172;6.808;2022-12-10T06:38:43;4.80;99.90
4293;DHT22;2160;51.172;6.808;2022-12-10T06:41:12;4.70;99.90
4293;DHT22;2160;51.172;6.808;2022-12-10T06:43:41;4.60;99.90
4293;DHT22;2160;51.172;6.808;2022-12-10T06:46:10;4.60;99.90
4293;DHT22;2160;51.172;6.808;2022-12-10T06:48:38;4.70;99.90
4293;DHT22;2160;51.172;6.808;2022-12-10T06:51:05;4.60;99.90
4293;DHT22;2160;51.172;6.808;2022-12-10T06:53:33;4.50;99.90
4293;DHT22;2160;51.172;6.808;2022-12-10T06:56:01;4.60;99.90
4293;DHT22;2160;51.172;6.808;2022-12-10T06:58:29;4.40;99.90
4293;DHT22;2160;51.172;6.808;2022-12-10T07:01:03;4.30;99.90
4293;DHT22;2160;51.172;6.808;2022-12-10T07:03:32;4.00;99.90
4293;DHT22;2160;51.172;6.808;2022-12-10T07:06:00;3.90;99.90
4293;DHT22;2160;51.172;6.808;2022-12-10T07:08:27;3.80;99.90
4293;DHT22;2160;51.172;6.808;2022-12-10T07:10:54;3.50;99.90
4293;DHT22;2160;51.172;6.808;2022-12-10T07:13:21;3.10;99.90
4293;DHT22;2160;51.172;6.808;2022-12-10T07:15:48;3.00;99.90
4293;DHT22;2160;51.172;6.808;2022-12-10T07:18:16;2.80;99.90
4293;DHT22;2160;51.172;6.808;2022-12-10T07:20:44;2.70;99.90
4293;DHT22;2160;51.172;6.808;2022-12-10T07:23:10;2.90;99.90
4293;DHT22;2160;51.172;6.808;2022-12-10T07:25:37;3.10;99.90
4293;DHT22;2160;51.172;6.808;2022-12-10T07:28:04;3.10;99.90
4293;DHT22;2160;51.172;6.808;2022-12-10T07:30:31;3.20;99.90
4293;DHT22;2160;51.172;6.808;2022-12-10T07:32:59;3.20;99.90
4293;DHT22;2160;51.172;6.808;2022-12-10T07:35:27;3.30;99.90
4293;DHT22;2160;51.172;6.808;2022-12-10T07:37:54;3.60;99.90
4293;DHT22;2160;51.172;6.808;2022-12-10T07:40:21;3.60;99.90
4293;DHT22;2160;51.172;6.808;2022-12-10T07:42:48;3.50;99.90
4293;DHT22;2160;51.172;6.808;2022-12-10T07:45:15;3.40;99.90
4293;DHT22;2160;51.172;6.808;2022-12-10T07:47:42;3.30;99.90
4293;DHT22;2160;51.172;6.808;2022-12-10T07:50:09;3.00;99.90
4293;DHT22;2160;51.172;6.808;2022-12-10T07:52:37;2.80;99.90
4293;DHT22;2160;51.172;6.808;2022-12-10T07:55:05;2.80;99.90
4293;DHT22;2160;51.172;6.808;2022-12-10T07:57:32;2.80;99.90
4293;DHT22;2160;51.172;6.808;2022-12-10T07:59:59;2.80;99.90
4293;DHT22;2160;51.172;6.808;2022-12-10T08:02:26;2.60;99.90
4293;DHT22;2160;51.172;6.808;2022-12-10T08:04:53;2.80;99.90
4293;DHT22;2160;51.172;6.808;2022-12-10T08:07:20;3.20;99.90
4293;DHT22;2160;51.172;6.808;2022-12-10T08:09:48;3.50;99.90
4293;DHT22;2160;51.172;6.808;2022-12-10T08:12:15;3.60;99.90
4293;DHT22;2160;51.172;6.808;2022-12-10T08:14:41;3.20;99.90
4293;DHT22;2160;51.172;6.808;2022-12-10T08:17:08;3.10;99.90
4293;DHT22;2160;51.172;6.808;2022-12-10T08:19:35;3.10;99.90
4293;DHT22;2160;51.172;6.808;2022-12-10T08:22:02;3.30;99.90
4293;DHT22;2160;51.172;6.808;2022-12-10T08:24:29;2.90;99.90
4293;DHT22;2160;51.172;6.808;2022-12-10T08:26:57;2.70;99.90
4293;DHT22;2160;51.172;6.808;2022-12-10T08:29:24;2.70;99.90
4293;DHT22;2160;51.172;6.808;2022-12-10T08:31:51;3.00;99.90
4293;DHT22;2160;51.172;6.808;2022-12-10T08:34:18;3.20;99.90
4293;DHT22;2160;51.172;6.808;2022-12-10T08:36:46;3.30;99.90
4293;DHT22;2160;51.172;6.808;2022-12-10T08:39:13;3.00;99.90
4293;DHT22;2160;51.172;6.808;2022-12-10T08:41:41;3.20;99.90
4293;DHT22;2160;51.172;6.808;2022-12-10T08:44:10;3.30;99.90
4293;DHT22;2160;51.172;6.808;2022-12-10T08:46:37;3.30;99.90
4293;DHT22;2160;51.172;6.808;2022-12-10T08:49:04;3.20;99.90
4293;DHT22;2160;51.172;6.808;2022-12-10T08:51:32;3.40;99.90
4293;DHT22;2160;51.172;6.808;2022-12-10T08:53:59;3.60;99.90
4293;DHT22;2160;51.172;6.808;2022-12-10T08:56:26;3.50;99.90
4293;DHT22;2160;51.172;6.808;2022-12-10T08:58:53;3.50;99.90
4293;DHT22;2160;51.172;6.808;2022-12-10T09:01:21;3.30;99.90
4293;DHT22;2160;51.172;6.808;2022-12-10T09:03:48;3.10;99.90
4293;DHT22;2160;51.172;6.808;2022-12-10T09:06:17;3.30;99.90
4293;DHT22;2160;51.172;6.808;2022-12-10T09:08:45;3.40;99.90
4293;DHT22;2160;51.172;6.808;2022-12-10T09:11:13;3.50;99.90
4293;DHT22;2160;51.172;6.808;2022-12-10T09:13:41;3.50;99.90
4293;DHT22;2160;51.172;6.808;2022-12-10T09:16:11;3.60;99.90
4293;DHT22;2160;51.172;6.808;2022-12-10T09:18:39;3.40;99.90
4293;DHT22;2160;51.172;6.808;2022-12-10T09:21:08;3.10;99.90
4293;DHT22;2160;51.172;6.808;2022-12-10T09:23:35;3.10;99.90
4293;DHT22;2160;51.172;6.808;2022-12-10T09:26:05;3.00;99.90
4293;DHT22;2160;51.172;6.808;2022-12-10T09:28:33;3.10;99.90
4293;DHT22;2160;51.172;6.808;2022-12-10T09:31:00;3.30;99.90
4293;DHT22;2160;51.172;6.808;2022-12-10T09:33:30;3.40;99.90
4293;DHT22;2160;51.172;6.808;2022-12-10T09:35:59;3.50;99.90
4293;DHT22;2160;51.172;6.808;2022-12-10T09:38:25;3.50;99.90
4293;DHT22;2160;51.172;6.808;2022-12-10T09:41:01;3.30;99.90
4293;DHT22;2160;51.172;6.808;2022-12-10T09:43:41;3.50;99.90
4293;DHT22;2160;51.172;6.808;2022-12-10T09:46:18;3.50;99.90
4293;DHT22;2160;51.172;6.808;2022-12-10T09:48:58;3.40;99.90
4293;DHT22;2160;51.172;6.808;2022-12-10T09:51:32;3.20;99.90
4293;DHT22;2160;51.172;6.808;2022-12-10T09:54:02;3.10;99.90
4293;DHT22;2160;51.172;6.808;2022-12-10T09:56:34;3.40;99.90
4293;DHT22;2160;51.172;6.808;2022-12-10T09:59:04;3.50;99.90
4293;DHT22;2160;51.172;6.808;2022-12-10T10:01:38;3.50;99.90
4293;DHT22;2160;51.172;6.808;2022-12-10T10:04:05;3.20;99.90
4293;DHT22;2160;51.172;6.808;2022-12-10T10:06:33;3.10;99.90
4293;DHT22;2160;51.172;6.808;2022-12-10T10:09:01;3.30;99.90
4293;DHT22;2160;51.172;6.808;2022-12-10T10:11:30;3.40;99.90
4293;DHT22;2160;51.172;6.808;2022-12-10T10:13:59;3.70;99.90
4293;DHT22;2160;51.172;6.808;2022-12-10T10:16:33;3.90;99.90
4293;DHT22;2160;51.172;6.808;2022-12-10T10:19:02;4.00;99.90
4293;DHT22;2160;51.172;6.808;2022-12-10T10:21:35;3.70;99.90
4293;DHT22;2160;51.172;6.808;2022-12-10T10:24:04;3.60;99.90
4293;DHT22;2160;51.172;6.808;2022-12-10T10:26:32;3.60;99.90
4293;DHT22;2160;51.172;6.808;2022-12-10T10:29:01;3.60;99.90
4293;DHT22;2160;51.172;6.808;2022-12-10T10:31:31;3.70;99.90
4293;DHT22;2160;51.172;6.808;2022-12-10T10:34:00;3.80;99.90
4293;DHT22;2160;51.172;6.808;2022-12-10T10:36:30;3.80;99.90
4293;DHT22;2160;51.172;6.808;2022-12-10T10:39:07;4.00;99.90
4293;DHT22;2160;51.172;6.808;2022-12-10T10:41:38;4.30;99.90
4293;DHT22;2160;51.172;6.808;2022-12-10T10:44:13;4.40;99.90
4293;DHT22;2160;51.172;6.808;2022-12-10T10:46:41;4.30;99.90
4293;DHT22;2160;51.172;6.808;2022-12-10T10:49:17;4.30;99.90
4293;DHT22;2160;51.172;6.808;2022-12-10T10:51:45;4.40;99.90
4293;DHT22;2160;51.172;6.808;2022-12-10T10:54:31;4.50;99.90
4293;DHT22;2160;51.172;6.808;2022-12-10T10:57:02;4.70;99.90
4293;DHT22;2160;51.172;6.808;2022-12-10T10:59:32;4.80;99.90
4293;DHT22;2160;51.172;6.808;2022-12-10T11:02:04;4.90;99.90
4293;DHT22;2160;51.172;6.808;2022-12-10T11:04:37;4.80;99.90
4293;DHT22;2160;51.172;6.808;2022-12-10T11:07:15;4.40;99.90
4293;DHT22;2160;51.172;6.808;2022-12-10T11:09:44;4.50;99.90
4293;DHT22;2160;51.172;6.808;2022-12-10T11:12:27;4.60;99.90
4293;DHT22;2160;51.172;6.808;2022-12-10T11:14:54;4.80;99.90
4293;DHT22;2160;51.172;6.808;2022-12-10T11:17:24;4.70;99.90
4293;DHT22;2160;51.172;6.808;2022-12-10T11:19:58;4.60;99.90
4293;DHT22;2160;51.172;6.808;2022-12-10T11:22:29;4.60;99.90
4293;DHT22;2160;51.172;6.808;2022-12-10T11:24:58;4.60;99.90
4293;DHT22;2160;51.172;6.808;2022-12-10T11:27:44;4.40;99.90
4293;DHT22;2160;51.172;6.808;2022-12-10T11:30:16;4.40;99.90
4293;DHT22;2160;51.172;6.808;2022-12-10T11:33:09;4.50;99.90
4293;DHT22;2160;51.172;6.808;2022-12-10T11:35:47;4.30;99.90
4293;DHT22;2160;51.172;6.808;2022-12-10T11:38:24;4.20;99.90
4293;DHT22;2160;51.172;6.808;2022-12-10T11:40:59;4.50;99.90
4293;DHT22;2160;51.172;6.808;2022-12-10T11:43:54;4.50;99.90
4293;DHT22;2160;51.172;6.808;2022-12-10T11:46:44;4.60;99.90
4293;DHT22;2160;51.172;6.808;2022-12-10T11:49:23;4.80;99.90
4293;DHT22;2160;51.172;6.808;2022-12-10T11:51:57;4.90;99.90
4293;DHT22;2160;51.172;6.808;2022-12-10T11:54:57;4.90;99.90
4293;DHT22;2160;51.172;6.808;2022-12-10T11:57:31;5.00;99.90
4293;DHT22;2160;51.172;6.808;2022-12-10T12:00:13;4.90;99.90
4293;DHT22;2160;51.172;6.808;2022-12-10T12:03:00;4.90;99.90
4293;DHT22;2160;51.172;6.808;2022-12-10T12:05:51;4.90;99.90
4293;DHT22;2160;51.172;6.808;2022-12-10T12:08:24;5.00;99.90
4293;DHT22;2160;51.172;6.808;2022-12-10T12:11:02;5.10;99.90
4293;DHT22;2160;51.172;6.808;2022-12-10T12:13:35;5.20;99.90
4293;DHT22;2160;51.172;6.808;2022-12-10T12:16:09;5.10;99.90
4293;DHT22;2160;51.172;6.808;2022-12-10T12:18:43;5.20;99.90
4293;DHT22;2160;51.172;6.808;2022-12-10T12:21:14;5.20;99.90
4293;DHT22;2160;51.172;6.808;2022-12-10T12:23:47;5.40;99.90
4293;DHT22;2160;51.172;6.808;2022-12-10T12:26:20;4.80;99.90
4293;DHT22;2160;51.172;6.808;2022-12-10T12:28:53;4.80;99.90
4293;DHT22;2160;51.172;6.808;2022-12-10T12:31:27;4.90;99.90
4293;DHT22;2160;51.172;6.808;2022-12-10T12:34:01;4.60;99.90
4293;DHT22;2160;51.172;6.808;2022-12-10T12:36:31;4.80;99.90
4293;DHT22;2160;51.172;6.808;2022-12-10T12:39:05;5.00;99.90
4293;DHT22;2160;51.172;6.808;2022-12-10T12:41:36;5.10;99.90
4293;DHT22;2160;51.172;6.808;2022-12-10T12:44:14;5.30;99.90
4293;DHT22;2160;51.172;6.808;2022-12-10T12:46:45;5.30;99.90
4293;DHT22;2160;51.172;6.808;2022-12-10T12:49:18;5.20;99.90
4293;DHT22;2160;51.172;6.808;2022-12-10T12:51:51;5.20;99.90
4293;DHT22;2160;51.172;6.808;2022-12-10T12:54:19;5.30;99.90
4293;DHT22;2160;51.172;6.808;2022-12-10T12:57:01;5.40;99.90
4293;DHT22;2160;51.172;6.808;2022-12-10T12:59:48;5.40;99.90
4293;DHT22;2160;51.172;6.808;2022-12-10T13:02:42;5.10;99.90
4293;DHT22;2160;51.172;6.808;2022-12-10T13:05:13;4.90;99.90
4293;DHT22;2160;51.172;6.808;2022-12-10T13:07:41;5.00;99.90
4293;DHT22;2160;51.172;6.808;2022-12-10T13:10:26;5.00;99.90
4293;DHT22;2160;51.172;6.808;2022-12-10T13:13:16;5.10;99.90
4293;DHT22;2160;51.172;6.808;2022-12-10T13:15:45;5.30;99.90
4293;DHT22;2160;51.172;6.808;2022-12-10T13:18:33;5.40;99.90
4293;DHT22;2160;51.172;6.808;2022-12-10T13:21:26;5.50;99.90
4293;DHT22;2160;51.172;6.808;2022-12-10T13:23:54;5.30;99.90
4293;DHT22;2160;51.172;6.808;2022-12-10T13:26:31;5.10;99.90
4293;DHT22;2160;51.172;6.808;2022-12-10T13:29:13;5.30;99.90
4293;DHT22;2160;51.172;6.808;2022-12-10T13:31:57;5.40;99.90
4293;DHT22;2160;51.172;6.808;2022-12-10T13:34:33;5.40;99.90
4293;DHT22;2160;51.172;6.808;2022-12-10T13:37:18;5.20;99.90
4293;DHT22;2160;51.172;6.808;2022-12-10T13:40:01;5.30;99.90
4293;DHT22;2160;51.172;6.808;2022-12-10T13:42:33;5.30;99.90
4293;DHT22;2160;51.172;6.808;2022-12-10T13:45:27;5.50;99.90
4293;DHT22;2160;51.172;6.808;2022-12-10T13:48:26;5.50;99.90
4293;DHT22;2160;51.172;6.808;2022-12-10T13:51:18;5.40;99.90
4293;DHT22;2160;51.172;6.808;2022-12-10T13:53:58;5.50;99.90
4293;DHT22;2160;51.172;6.808;2022-12-10T13:56:30;5.50;99.90
4293;DHT22;2160;51.172;6.808;2022-12-10T13:59:11;5.10;99.90
4293;DHT22;2160;51.172;6.808;2022-12-10T14:01:44;4.90;99.90
4293;DHT22;2160;51.172;6.808;2022-12-10T14:04:39;5.10;99.90
4293;DHT22;2160;51.172;6.808;2022-12-10T14:07:10;5.00;99.90
4293;DHT22;2160;51.172;6.808;2022-12-10T14:09:42;5.10;99.90
4293;DHT22;2160;51.172;6.808;2022-12-10T14:12:15;5.20;99.90
4293;DHT22;2160;51.172;6.808;2022-12-10T14:14:46;5.10;99.90
4293;DHT22;2160;51.172;6.808;2022-12-10T14:17:16;5.00;99.90
4293;DHT22;2160;51.172;6.808;2022-12-10T14:19:47;5.20;99.90
4293;DHT22;2160;51.172;6.808;2022-12-10T14:22:18;5.30;99.90
4293;DHT22;2160;51.172;6.808;2022-12-10T14:24:50;5.20;99.90
4293;DHT22;2160;51.172;6.808;2022-12-10T14:27:19;5.20;99.90
4293;DHT22;2160;51.172;6.808;2022-12-10T14:29:47;5.30;99.90
4293;DHT22;2160;51.172;6.808;2022-12-10T14:32:16;5.30;99.90
4293;DHT22;2160;51.172;6.808;2022-12-10T14:34:51;5.40;99.90
4293;DHT22;2160;51.172;6.808;2022-12-10T14:37:20;5.30;99.90
4293;DHT22;2160;51.172;6.808;2022-12-10T14:39:49;5.40;99.90
4293;DHT22;2160;51.172;6.808;2022-12-10T14:42:16;5.60;99.90
4293;DHT22;2160;51.172;6.808;2022-12-10T14:44:44;5.60;99.90
4293;DHT22;2160;51.172;6.808;2022-12-10T14:47:14;5.50;99.90
4293;DHT22;2160;51.172;6.808;2022-12-10T14:49:44;5.40;99.90
4293;DHT22;2160;51.172;6.808;2022-12-10T14:52:14;5.50;99.90
4293;DHT22;2160;51.172;6.808;2022-12-10T14:54:41;5.60;99.90
4293;DHT22;2160;51.172;6.808;2022-12-10T14:57:12;5.50;99.90
4293;DHT22;2160;51.172;6.808;2022-12-10T14:59:43;5.60;99.90
4293;DHT22;2160;51.172;6.808;2022-12-10T15:02:16;5.40;99.90
4293;DHT22;2160;51.172;6.808;2022-12-10T15:04:46;5.50;99.90
4293;DHT22;2160;51.172;6.808;2022-12-10T15:07:19;5.60;99.90
4293;DHT22;2160;51.172;6.808;2022-12-10T15:09:47;5.50;99.90
4293;DHT22;2160;51.172;6.808;2022-12-10T15:12:24;5.40;99.90
4293;DHT22;2160;51.172;6.808;2022-12-10T15:14:53;5.40;99.90
4293;DHT22;2160;51.172;6.808;2022-12-10T15:17:34;5.30;99.90
4293;DHT22;2160;51.172;6.808;2022-12-10T15:20:03;5.20;99.90
4293;DHT22;2160;51.172;6.808;2022-12-10T15:22:32;5.20;99.90
4293;DHT22;2160;51.172;6.808;2022-12-10T15:25:18;5.30;99.90
4293;DHT22;2160;51.172;6.808;2022-12-10T15:27:52;5.20;99.90
4293;DHT22;2160;51.172;6.808;2022-12-10T15:30:24;5.30;99.90
4293;DHT22;2160;51.172;6.808;2022-12-10T15:32:56;5.20;99.90
4293;DHT22;2160;51.172;6.808;2022-12-10T15:35:23;5.00;99.90
4293;DHT22;2160;51.172;6.808;2022-12-10T15:37:53;5.20;99.90
4293;DHT22;2160;51.172;6.808;2022-12-10T15:40:24;5.60;99.90
4293;DHT22;2160;51.172;6.808;2022-12-10T15:42:56;5.30;99.90
4293;DHT22;2160;51.172;6.808;2022-12-10T15:45:39;5.70;99.90
4293;DHT22;2160;51.172;6.808;2022-12-10T15:48:08;5.60;99.90
4293;DHT22;2160;51.172;6.808;2022-12-10T15:50:36;5.50;99.90
4293;DHT22;2160;51.172;6.808;2022-12-10T15:53:05;5.50;99.90
4293;DHT22;2160;51.172;6.808;2022-12-10T15:55:32;5.40;99.90
4293;DHT22;2160;51.172;6.808;2022-12-10T15:57:58;5.40;99.90
4293;DHT22;2160;51.172;6.808;2022-12-10T16:00:27;5.30;99.90
4293;DHT22;2160;51.172;6.808;2022-12-10T16:02:56;5.40;99.90
4293;DHT22;2160;51.172;6.808;2022-12-10T16:05:25;5.40;99.90
4293;DHT22;2160;51.172;6.808;2022-12-10T16:08:00;5.50;99.90
4293;DHT22;2160;51.172;6.808;2022-12-10T16:10:29;5.40;99.90
4293;DHT22;2160;51.172;6.808;2022-12-10T16:12:59;5.40;99.90
4293;DHT22;2160;51.172;6.808;2022-12-10T16:15:29;5.30;99.90
4293;DHT22;2160;51.172;6.808;2022-12-10T16:17:58;5.50;99.90
4293;DHT22;2160;51.172;6.808;2022-12-10T16:20:27;5.50;99.90
4293;DHT22;2160;51.172;6.808;2022-12-10T16:22:58;5.40;99.90
4293;DHT22;2160;51.172;6.808;2022-12-10T16:25:27;5.30;99.90
4293;DHT22;2160;51.172;6.808;2022-12-10T16:27:56;5.40;99.90
4293;DHT22;2160;51.172;6.808;2022-12-10T16:30:26;5.40;99.90
4293;DHT22;2160;51.172;6.808;2022-12-10T16:32:54;5.50;99.90
4293;DHT22;2160;51.172;6.808;2022-12-10T16:35:22;5.60;99.90
4293;DHT22;2160;51.172;6.808;2022-12-10T16:37:49;5.60;99.90
4293;DHT22;2160;51.172;6.808;2022-12-10T16:40:20;5.70;99.90
4293;DHT22;2160;51.172;6.808;2022-12-10T16:42:48;5.60;99.90
4293;DHT22;2160;51.172;6.808;2022-12-10T16:45:19;5.70;99.90
4293;DHT22;2160;51.172;6.808;2022-12-10T16:47:47;5.60;99.90
4293;DHT22;2160;51.172;6.808;2022-12-10T16:50:16;5.70;99.90
4293;DHT22;2160;51.172;6.808;2022-12-10T16:52:44;5.70;99.90
4293;DHT22;2160;51.172;6.808;2022-12-10T16:55:13;5.80;99.90
4293;DHT22;2160;51.172;6.808;2022-12-10T16:57:40;5.90;99.90
4293;DHT22;2160;51.172;6.808;2022-12-10T17:00:11;5.70;99.90
4293;DHT22;2160;51.172;6.808;2022-12-10T17:02:40;5.70;99.90
4293;DHT22;2160;51.172;6.808;2022-12-10T17:05:16;5.80;99.90
4293;DHT22;2160;51.172;6.808;2022-12-10T17:07:44;5.80;99.90
4293;DHT22;2160;51.172;6.808;2022-12-10T17:10:12;5.70;99.90
4293;DHT22;2160;51.172;6.808;2022-12-10T17:12:39;5.70;99.90
4293;DHT22;2160;51.172;6.808;2022-12-10T17:15:11;5.40;99.90
4293;DHT22;2160;51.172;6.808;2022-12-10T17:17:39;5.30;99.90
4293;DHT22;2160;51.172;6.808;2022-12-10T17:20:16;5.40;99.90
4293;DHT22;2160;51.172;6.808;2022-12-10T17:22:43;5.60;99.90
4293;DHT22;2160;51.172;6.808;2022-12-10T17:25:11;5.30;99.90
4293;DHT22;2160;51.172;6.808;2022-12-10T17:27:38;5.40;99.90
4293;DHT22;2160;51.172;6.808;2022-12-10T17:30:12;5.30;99.90
4293;DHT22;2160;51.172;6.808;2022-12-10T17:32:41;5.40;99.90
4293;DHT22;2160;51.172;6.808;2022-12-10T17:35:08;5.50;99.90
4293;DHT22;2160;51.172;6.808;2022-12-10T17:37:39;5.60;99.90
4293;DHT22;2160;51.172;6.808;2022-12-10T17:40:24;5.60;99.90
4293;DHT22;2160;51.172;6.808;2022-12-10T17:42:51;5.50;99.90
4293;DHT22;2160;51.172;6.808;2022-12-10T17:45:19;5.30;99.90
4293;DHT22;2160;51.172;6.808;2022-12-10T17:47:49;5.20;99.90
4293;DHT22;2160;51.172;6.808;2022-12-10T17:50:23;5.20;99.90
4293;DHT22;2160;51.172;6.808;2022-12-10T17:52:51;5.10;99.90
4293;DHT22;2160;51.172;6.808;2022-12-10T17:55:18;5.30;99.90
4293;DHT22;2160;51.172;6.808;2022-12-10T17:57:55;5.30;99.90
4293;DHT22;2160;51.172;6.808;2022-12-10T18:00:28;5.20;99.90
4293;DHT22;2160;51.172;6.808;2022-12-10T18:02:58;5.30;99.90
4293;DHT22;2160;51.172;6.808;2022-12-10T18:05:29;5.50;99.90
4293;DHT22;2160;51.172;6.808;2022-12-10T18:07:57;5.40;99.90
4293;DHT22;2160;51.172;6.808;2022-12-10T18:10:25;5.30;99.90
4293;DHT22;2160;51.172;6.808;2022-12-10T18:12:56;5.40;99.90
4293;DHT22;2160;51.172;6.808;2022-12-10T18:15:25;5.30;99.90
4293;DHT22;2160;51.172;6.808;2022-12-10T18:17:54;5.40;99.90
4293;DHT22;2160;51.172;6.808;2022-12-10T18:20:28;5.60;99.90
4293;DHT22;2160;51.172;6.808;2022-12-10T18:22:56;5.50;99.90
4293;DHT22;2160;51.172;6.808;2022-12-10T18:25:34;5.50;99.90
4293;DHT22;2160;51.172;6.808;2022-12-10T18:28:45;5.60;99.90
4293;DHT22;2160;51.172;6.808;2022-12-10T18:31:25;5.50;99.90
4293;DHT22;2160;51.172;6.808;2022-12-10T18:34:05;5.40;99.90
4293;DHT22;2160;51.172;6.808;2022-12-10T18:36:55;5.60;99.90
4293;DHT22;2160;51.172;6.808;2022-12-10T18:39:26;5.50;99.90
4293;DHT22;2160;51.172;6.808;2022-12-10T18:42:11;5.20;99.90
4293;DHT22;2160;51.172;6.808;2022-12-10T18:44:39;5.20;99.90
4293;DHT22;2160;51.172;6.808;2022-12-10T18:47:09;5.20;99.90
4293;DHT22;2160;51.172;6.808;2022-12-10T18:49:37;5.20;99.90
4293;DHT22;2160;51.172;6.808;2022-12-10T18:52:07;5.10;99.90
4293;DHT22;2160;51.172;6.808;2022-12-10T18:54:34;5.00;99.90
4293;DHT22;2160;51.172;6.808;2022-12-10T18:57:01;4.90;99.90
4293;DHT22;2160;51.172;6.808;2022-12-10T18:59:28;5.00;99.90
4293;DHT22;2160;51.172;6.808;2022-12-10T19:01:55;4.90;99.90
4293;DHT22;2160;51.172;6.808;2022-12-10T19:04:22;5.10;99.90
4293;DHT22;2160;51.172;6.808;2022-12-10T19:06:49;5.30;99.90
4293;DHT22;2160;51.172;6.808;2022-12-10T19:09:17;5.50;99.90
4293;DHT22;2160;51.172;6.808;2022-12-10T19:11:45;5.30;99.90
4293;DHT22;2160;51.172;6.808;2022-12-10T19:14:12;5.30;99.90
4293;DHT22;2160;51.172;6.808;2022-12-10T19:16:39;5.00;99.90
4293;DHT22;2160;51.172;6.808;2022-12-10T19:19:09;5.10;99.90
4293;DHT22;2160;51.172;6.808;2022-12-10T19:21:37;5.20;99.90
4293;DHT22;2160;51.172;6.808;2022-12-10T19:24:05;5.10;99.90
4293;DHT22;2160;51.172;6.808;2022-12-10T19:26:35;5.20;99.90
4293;DHT22;2160;51.172;6.808;2022-12-10T19:29:09;5.00;99.90
4293;DHT22;2160;51.172;6.808;2022-12-10T19:31:37;5.20;99.90
4293;DHT22;2160;51.172;6.808;2022-12-10T19:34:04;5.10;99.90
4293;DHT22;2160;51.172;6.808;2022-12-10T19:36:31;5.10;99.90
4293;DHT22;2160;51.172;6.808;2022-12-10T19:38:59;5.10;99.90
4293;DHT22;2160;51.172;6.808;2022-12-10T19:41:27;5.10;99.90
4293;DHT22;2160;51.172;6.808;2022-12-10T19:43:56;5.10;99.90
4293;DHT22;2160;51.172;6.808;2022-12-10T19:46:26;5.20;99.90
4293;DHT22;2160;51.172;6.808;2022-12-10T19:48:53;5.20;99.90
4293;DHT22;2160;51.172;6.808;2022-12-10T19:51:20;5.50;99.90
4293;DHT22;2160;51.172;6.808;2022-12-10T19:53:49;5.20;99.90
4293;DHT22;2160;51.172;6.808;2022-12-10T19:56:21;5.20;99.90
4293;DHT22;2160;51.172;6.808;2022-12-10T19:58:51;5.10;99.90
4293;DHT22;2160;51.172;6.808;2022-12-10T20:01:20;5.20;99.90
4293;DHT22;2160;51.172;6.808;2022-12-10T20:03:48;5.20;99.90
4293;DHT22;2160;51.172;6.808;2022-12-10T20:06:17;5.20;99.90
4293;DHT22;2160;51.172;6.808;2022-12-10T20:08:47;5.10;99.90
4293;DHT22;2160;51.172;6.808;2022-12-10T20:11:18;5.10;99.90
4293;DHT22;2160;51.172;6.808;2022-12-10T20:13:46;5.00;99.90
4293;DHT22;2160;51.172;6.808;2022-12-10T20:17:04;5.30;99.90
4293;DHT22;2160;51.172;6.808;2022-12-10T20:19:43;5.20;99.90
4293;DHT22;2160;51.172;6.808;2022-12-10T20:22:41;5.10;99.90
4293;DHT22;2160;51.172;6.808;2022-12-10T20:25:40;5.30;99.90
4293;DHT22;2160;51.172;6.808;2022-12-10T20:28:26;5.40;99.90
4293;DHT22;2160;51.172;6.808;2022-12-10T20:31:34;5.50;99.90
4293;DHT22;2160;51.172;6.808;2022-12-10T20:35:18;5.50;99.90
4293;DHT22;2160;51.172;6.808;2022-12-10T20:37:59;5.50;99.90
4293;DHT22;2160;51.172;6.808;2022-12-10T20:42:30;5.40;99.90
4293;DHT22;2160;51.172;6.808;2022-12-10T20:44:37;5.20;99.90
4293;DHT22;2160;51.172;6.808;2022-12-10T20:47:38;5.20;99.90
4293;DHT22;2160;51.172;6.808;2022-12-10T20:57:20;5.00;99.90
4293;DHT22;2160;51.172;6.808;2022-12-10T21:00:26;5.10;99.90
4293;DHT22;2160;51.172;6.808;2022-12-10T21:03:07;5.00;99.90
4293;DHT22;2160;51.172;6.808;2022-12-10T21:05:45;5.10;99.90
4293;DHT22;2160;51.172;6.808;2022-12-10T21:08:35;5.00;99.90
4293;DHT22;2160;51.172;6.808;2022-12-10T21:11:12;5.10;99.90
4293;DHT22;2160;51.172;6.808;2022-12-10T21:13:58;5.10;99.90
4293;DHT22;2160;51.172;6.808;2022-12-10T21:16:34;5.10;99.90
4293;DHT22;2160;51.172;6.808;2022-12-10T21:19:20;5.20;99.90
4293;DHT22;2160;51.172;6.808;2022-12-10T21:21:53;5.10;99.90
4293;DHT22;2160;51.172;6.808;2022-12-10T21:24:23;5.00;99.90
4293;DHT22;2160;51.172;6.808;2022-12-10T21:27:14;4.80;99.90
4293;DHT22;2160;51.172;6.808;2022-12-10T21:29:51;4.70;99.90
4293;DHT22;2160;51.172;6.808;2022-12-10T21:32:38;4.60;99.90
4293;DHT22;2160;51.172;6.808;2022-12-10T21:35:55;4.60;99.90
4293;DHT22;2160;51.172;6.808;2022-12-10T21:38:33;4.40;99.90
4293;DHT22;2160;51.172;6.808;2022-12-10T21:41:08;4.50;99.90
4293;DHT22;2160;51.172;6.808;2022-12-10T21:43:58;4.60;99.90
4293;DHT22;2160;51.172;6.808;2022-12-10T21:46:54;4.80;99.90
4293;DHT22;2160;51.172;6.808;2022-12-10T21:49:57;4.70;99.90
4293;DHT22;2160;51.172;6.808;2022-12-10T21:52:40;4.80;99.90
4293;DHT22;2160;51.172;6.808;2022-12-10T21:55:35;5.00;99.90
4293;DHT22;2160;51.172;6.808;2022-12-10T21:58:27;4.90;99.90
4293;DHT22;2160;51.172;6.808;2022-12-10T22:01:02;4.90;99.90
4293;DHT22;2160;51.172;6.808;2022-12-10T22:04:01;5.10;99.90